Eships Dana — ZDJT6 — position and weather

sailwx.info

Track history (hours):
 
Tides and Currents Weather Stations Pressure Air Temp Water Temp Dewpoint Dewpoint Depression Visibility Wind Speed Wind Dir Waves Ship Positions

Eships Dana

Last reported at 2017-Jan-16 18:33 UTC. Time now 2017-Jan-16 19:25 UTC.
Position N 49°45' W 003°32'.

Length 116 m; draft 5.6 m.

Type: Ship (hazmat cat A). MMSI: 236566000.

Date/timePositionNaut miles runAvg speedWind from/ knotsBaromVisibWave heightAir tempDewpointWater temp
2017-Jan-16 18:33N 49°45' W 003°32'1515.3
2017-Jan-16 17:33N 49°53' W 003°11'2016.8
2017-Jan-16 16:22N 50°01' W 002°43'2317.7
2017-Jan-16 15:05N 50°07' W 002°09'917.1
2017-Jan-16 14:34N 50°09' W 001°56'1615.6
2017-Jan-16 13:33N 50°13' W 001°32'5012.5
2017-Jan-16 09:33N 50°28' W 000°17'1414.3
2017-Jan-16 08:34N 50°32' E 000°04'1615.7
2017-Jan-16 07:33N 50°36' E 000°28'1616.2
2017-Jan-16 06:33N 50°45' E 000°49'1615.5
2017-Jan-16 05:30N 50°55' E 001°10'1314.0
2017-Jan-16 04:33N 51°03' E 001°26'1212.4
2017-Jan-16 03:33N 51°11' E 001°41'1212.2
2017-Jan-16 02:33N 51°21' E 001°54'1111.3
2017-Jan-16 01:33N 51°22' E 002°12'1413.9
2017-Jan-16 00:34N 51°23' E 002°34'1312.7
2017-Jan-15 23:33N 51°23' E 002°54'1414.4
2017-Jan-15 22:33N 51°25' E 003°17'1413.7
2017-Jan-15 21:33N 51°27' E 003°39'1111.4
2017-Jan-15 20:33N 51°23' E 003°56'1010.0
2017-Jan-15 19:34N 51°24' E 004°12'7 7.3
2017-Jan-15 18:33N 51°17' E 004°15'1 0.8
2017-Jan-15 17:33N 51°17' E 004°14'0 0.0
2017-Jan-15 16:32N 51°17' E 004°14'0 0.0
2017-Jan-14 10:32N 51°17' E 004°14'1 0.8
2017-Jan-14 09:31N 51°17' E 004°15'3 3.3
2017-Jan-14 08:32N 51°17' E 004°20'0 0.0
2017-Jan-14 07:33N 51°17' E 004°20'1 0.9
2017-Jan-14 06:31N 51°16' E 004°20'0 0.0
2017-Jan-14 05:28N 51°16' E 004°20'0 0.0
2017-Jan-14 04:31N 51°16' E 004°20'0 0.0
2017-Jan-14 03:31N 51°16' E 004°20'0 0.0
2017-Jan-13 23:31N 51°16' E 004°20'0 0.0
2017-Jan-13 22:31N 51°16' E 004°20'0 0.0
2017-Jan-13 21:31N 51°16' E 004°20'0 0.0
2017-Jan-13 20:34N 51°16' E 004°20'0 0.0
2017-Jan-13 19:31N 51°16' E 004°20'0 0.0
2017-Jan-13 18:34N 51°16' E 004°20'0 0.0
2017-Jan-13 17:31N 51°16' E 004°20'0 0.0
2017-Jan-13 16:31N 51°16' E 004°20'0 0.0
2017-Jan-13 15:28N 51°16' E 004°20'0 0.0
2017-Jan-13 14:31N 51°16' E 004°20'0 0.0
2017-Jan-13 13:31N 51°16' E 004°20'0 0.0
2017-Jan-13 12:31N 51°16' E 004°20'0 0.0
2017-Jan-13 11:34N 51°16' E 004°20'0 0.0
2017-Jan-13 10:34N 51°16' E 004°20'0 0.0
2017-Jan-13 09:34N 51°16' E 004°20'0 0.0
2017-Jan-13 08:31N 51°16' E 004°20'0 0.0
2017-Jan-13 07:25N 51°16' E 004°20'0 0.0
2017-Jan-13 06:31N 51°16' E 004°20'0 0.0
2017-Jan-13 05:31N 51°16' E 004°20'0 0.0
2017-Jan-13 04:31N 51°16' E 004°20'0 0.0
2017-Jan-13 03:31N 51°16' E 004°20'0 0.0
2017-Jan-13 02:34N 51°16' E 004°20'1 0.6
2017-Jan-13 01:34N 51°16' E 004°20'5 4.9
2017-Jan-13 00:34N 51°21' E 004°17'0 0.0
2017-Jan-12 23:33N 51°21' E 004°17'1 0.9
2017-Jan-12 22:33N 51°21' E 004°16'7 6.9
2017-Jan-12 21:33N 51°22' E 004°05'8 8.3
2017-Jan-12 20:33N 51°21' E 003°52'1110.8
2017-Jan-12 19:33N 51°26' E 003°36'1010.0
2017-Jan-12 18:33N 51°24' E 003°20'1010.4
2017-Jan-12 17:33N 51°24' E 003°04'9 9.0
2017-Jan-12 16:33N 51°33' E 003°08'1211.2
2017-Jan-12 15:31N 51°44' E 003°15'6 5.2
2017-Jan-12 14:22N 51°48' E 003°23'0 0.0
2017-Jan-12 13:27N 51°48' E 003°23'0 0.0
2017-Jan-12 07:04N 51°47' E 003°23'0 0.0
2017-Jan-11 19:32N 51°47' E 003°22'0 0.1
2017-Jan-11 17:28N 51°47' E 003°22'40311.2
2017-Jan-10 05:33N 58°27' E 005°06'1110.9
2017-Jan-10 04:33N 58°37' E 005°06'1110.8
2017-Jan-10 03:33N 58°48' E 005°07'1110.6
2017-Jan-10 02:33N 58°59' E 005°07'1010.0
2017-Jan-10 01:33N 59°06' E 005°21'9 9.4
2017-Jan-10 00:33N 59°14' E 005°32'3 0.3
2017-Jan-09 14:33N 59°16' E 005°29'2 2.4
2017-Jan-09 13:33N 59°14' E 005°31'0 0.0
2017-Jan-09 12:33N 59°14' E 005°31'0 0.0
2017-Jan-09 11:33N 59°14' E 005°31'0 0.0
2017-Jan-09 10:33N 59°14' E 005°31'0 0.0
2017-Jan-09 09:33N 59°14' E 005°31'0 0.0
2017-Jan-09 08:33N 59°14' E 005°31'0 0.0
2017-Jan-09 07:33N 59°14' E 005°31'0 0.0
2017-Jan-09 06:33N 59°14' E 005°31'0 0.0
2017-Jan-09 05:33N 59°14' E 005°31'0 0.0
2017-Jan-09 04:33N 59°14' E 005°31'0 0.0
2017-Jan-09 03:33N 59°14' E 005°31'2 1.5
2017-Jan-09 02:33N 59°12' E 005°32'9 9.5
2017-Jan-09 01:33N 59°05' E 005°21'9 9.5
2017-Jan-09 00:33N 58°57' E 005°10'1010.0
2017-Jan-08 23:33N 58°47' E 005°10'1414.0
2017-Jan-08 22:34N 58°33' E 005°09'1414.2
2017-Jan-08 21:34N 58°19' E 005°07'28613.6
2017-Jan-08 00:27N 53°40' E 003°10'11613.0
2017-Jan-07 15:33N 51°45' E 003°09'8 7.5
2017-Jan-07 14:31N 51°37' E 003°10'1111.8
2017-Jan-07 13:34N 51°27' E 003°00'1212.0
2017-Jan-07 12:33N 51°25' E 003°19'1413.9
2017-Jan-07 11:33N 51°27' E 003°41'  
Track history (hours):
 
Tides and Currents Weather Stations Pressure Air Temp Water Temp Dewpoint Dewpoint Depression Visibility Wind Speed Wind Dir Waves Ship Positions

Eships Dana

Last reported at 2017-Jan-16 18:33 UTC. Time now 2017-Jan-16 19:25 UTC.
Position N 49°45' W 003°32'.

Length 116 m; draft 5.6 m.

Type: Ship (hazmat cat A). MMSI: 236566000.

Date/timePositionNaut miles runAvg speedWind from/ knotsBaromVisibWave heightAir tempDewpointWater temp
2017-Jan-16 18:33N 49°45' W 003°32'1515.3
2017-Jan-16 17:33N 49°53' W 003°11'2016.8
2017-Jan-16 16:22N 50°01' W 002°43'2317.7
2017-Jan-16 15:05N 50°07' W 002°09'917.1
2017-Jan-16 14:34N 50°09' W 001°56'1615.6
2017-Jan-16 13:33N 50°13' W 001°32'5012.5
2017-Jan-16 09:33N 50°28' W 000°17'1414.3
2017-Jan-16 08:34N 50°32' E 000°04'1615.7
2017-Jan-16 07:33N 50°36' E 000°28'1616.2
2017-Jan-16 06:33N 50°45' E 000°49'1615.5
2017-Jan-16 05:30N 50°55' E 001°10'1314.0
2017-Jan-16 04:33N 51°03' E 001°26'1212.4
2017-Jan-16 03:33N 51°11' E 001°41'1212.2
2017-Jan-16 02:33N 51°21' E 001°54'1111.3
2017-Jan-16 01:33N 51°22' E 002°12'1413.9
2017-Jan-16 00:34N 51°23' E 002°34'1312.7
2017-Jan-15 23:33N 51°23' E 002°54'1414.4
2017-Jan-15 22:33N 51°25' E 003°17'1413.7
2017-Jan-15 21:33N 51°27' E 003°39'1111.4
2017-Jan-15 20:33N 51°23' E 003°56'1010.0
2017-Jan-15 19:34N 51°24' E 004°12'7 7.3
2017-Jan-15 18:33N 51°17' E 004°15'1 0.8
2017-Jan-15 17:33N 51°17' E 004°14'0 0.0
2017-Jan-15 16:32N 51°17' E 004°14'0 0.0
2017-Jan-14 10:32N 51°17' E 004°14'1 0.8
2017-Jan-14 09:31N 51°17' E 004°15'3 3.3
2017-Jan-14 08:32N 51°17' E 004°20'0 0.0
2017-Jan-14 07:33N 51°17' E 004°20'1 0.9
2017-Jan-14 06:31N 51°16' E 004°20'0 0.0
2017-Jan-14 05:28N 51°16' E 004°20'0 0.0
2017-Jan-14 04:31N 51°16' E 004°20'0 0.0
2017-Jan-14 03:31N 51°16' E 004°20'0 0.0
2017-Jan-13 23:31N 51°16' E 004°20'0 0.0
2017-Jan-13 22:31N 51°16' E 004°20'0 0.0
2017-Jan-13 21:31N 51°16' E 004°20'0 0.0
2017-Jan-13 20:34N 51°16' E 004°20'0 0.0
2017-Jan-13 19:31N 51°16' E 004°20'0 0.0
2017-Jan-13 18:34N 51°16' E 004°20'0 0.0
2017-Jan-13 17:31N 51°16' E 004°20'0 0.0
2017-Jan-13 16:31N 51°16' E 004°20'0 0.0
2017-Jan-13 15:28N 51°16' E 004°20'0 0.0
2017-Jan-13 14:31N 51°16' E 004°20'0 0.0
2017-Jan-13 13:31N 51°16' E 004°20'0 0.0
2017-Jan-13 12:31N 51°16' E 004°20'0 0.0
2017-Jan-13 11:34N 51°16' E 004°20'0 0.0
2017-Jan-13 10:34N 51°16' E 004°20'0 0.0
2017-Jan-13 09:34N 51°16' E 004°20'0 0.0
2017-Jan-13 08:31N 51°16' E 004°20'0 0.0
2017-Jan-13 07:25N 51°16' E 004°20'0 0.0
2017-Jan-13 06:31N 51°16' E 004°20'0 0.0
2017-Jan-13 05:31N 51°16' E 004°20'0 0.0
2017-Jan-13 04:31N 51°16' E 004°20'0 0.0
2017-Jan-13 03:31N 51°16' E 004°20'0 0.0
2017-Jan-13 02:34N 51°16' E 004°20'1 0.6
2017-Jan-13 01:34N 51°16' E 004°20'5 4.9
2017-Jan-13 00:34N 51°21' E 004°17'0 0.0
2017-Jan-12 23:33N 51°21' E 004°17'1 0.9
2017-Jan-12 22:33N 51°21' E 004°16'7 6.9
2017-Jan-12 21:33N 51°22' E 004°05'8 8.3
2017-Jan-12 20:33N 51°21' E 003°52'1110.8
2017-Jan-12 19:33N 51°26' E 003°36'1010.0
2017-Jan-12 18:33N 51°24' E 003°20'1010.4
2017-Jan-12 17:33N 51°24' E 003°04'9 9.0
2017-Jan-12 16:33N 51°33' E 003°08'1211.2
2017-Jan-12 15:31N 51°44' E 003°15'6 5.2
2017-Jan-12 14:22N 51°48' E 003°23'0 0.0
2017-Jan-12 13:27N 51°48' E 003°23'0 0.0
2017-Jan-12 07:04N 51°47' E 003°23'0 0.0
2017-Jan-11 19:32N 51°47' E 003°22'0 0.1
2017-Jan-11 17:28N 51°47' E 003°22'40311.2
2017-Jan-10 05:33N 58°27' E 005°06'1110.9
2017-Jan-10 04:33N 58°37' E 005°06'1110.8
2017-Jan-10 03:33N 58°48' E 005°07'1110.6
2017-Jan-10 02:33N 58°59' E 005°07'1010.0
2017-Jan-10 01:33N 59°06' E 005°21'9 9.4
2017-Jan-10 00:33N 59°14' E 005°32'3 0.3
2017-Jan-09 14:33N 59°16' E 005°29'2 2.4
2017-Jan-09 13:33N 59°14' E 005°31'0 0.0
2017-Jan-09 12:33N 59°14' E 005°31'0 0.0
2017-Jan-09 11:33N 59°14' E 005°31'0 0.0
2017-Jan-09 10:33N 59°14' E 005°31'0 0.0
2017-Jan-09 09:33N 59°14' E 005°31'0 0.0
2017-Jan-09 08:33N 59°14' E 005°31'0 0.0
2017-Jan-09 07:33N 59°14' E 005°31'0 0.0
2017-Jan-09 06:33N 59°14' E 005°31'0 0.0
2017-Jan-09 05:33N 59°14' E 005°31'0 0.0
2017-Jan-09 04:33N 59°14' E 005°31'0 0.0
2017-Jan-09 03:33N 59°14' E 005°31'2 1.5
2017-Jan-09 02:33N 59°12' E 005°32'9 9.5
2017-Jan-09 01:33N 59°05' E 005°21'9 9.5
2017-Jan-09 00:33N 58°57' E 005°10'1010.0
2017-Jan-08 23:33N 58°47' E 005°10'1414.0
2017-Jan-08 22:34N 58°33' E 005°09'1414.2
2017-Jan-08 21:34N 58°19' E 005°07'28613.6
2017-Jan-08 00:27N 53°40' E 003°10'11613.0
2017-Jan-07 15:33N 51°45' E 003°09'8 7.5
2017-Jan-07 14:31N 51°37' E 003°10'1111.8
2017-Jan-07 13:34N 51°27' E 003°00'1212.0
2017-Jan-07 12:33N 51°25' E 003°19'1413.9
2017-Jan-07 11:33N 51°27' E 003°41'  

Dump ship's entire track history